Lanoraie, Canada
Current Conditions -  °F | °C
As of 8:31 PM on Sunday 23 Nov 2014 (Local Time) from CYHU Reporting Station
Haze Haze  
Wind Chill: 37°   Ceiling: 4100
Heat Index: 41°   Visibility: 6mi
Dew Point: 39°   Wind: 6mph
Humidity: 93%   Direction: 140°SE
Pressure: 29.99"   Gusts: NA
Location:  45.97°N, 73.22°W
Report Text: CYHU 240131Z AUTO 14005KT 6SM BR BKN041 OVC065 05/04 A2999 RMK SLP156
Loading
Personal Weather Stations






























Interactive Weather Map New forecast layout! Learn more

10-Day Weather Forecast

Advertisements
Track Severe Weather on mobile